Time,TemperatureF,DewpointF,PressureIn,WindDirection,WindDirectionDegrees,WindSpeedMPH,WindSpeedGustMPH,Humidity,HourlyPrecipIn,Conditions,Clouds,dailyrainin,SolarRadiationWatts/m^2,SoftwareType,DateUTC
2013-06-26 00:00:00,61.0,52.0,-100.00,WNW,289,4.0,12.0,71,0.00,,,0.00,0.000000,,2013-06-26 07:00:00,
2013-06-26 00:33:00,61.0,52.0,-100.00,WNW,289,4.0,12.0,71,0.00,,,0.00,0.000000,,2013-06-26 07:33:00,
2013-06-26 00:43:00,61.0,52.0,-100.00,WNW,289,4.0,12.0,71,0.00,,,0.00,0.000000,,2013-06-26 07:43:00,
2013-06-26 00:53:00,61.0,52.0,-100.00,WNW,289,4.0,12.0,71,0.00,,,0.00,0.000000,,2013-06-26 07:53:00,
2013-06-26 01:00:00,62.0,54.0,-100.00,NW,305,1.0,13.0,76,0.00,,,0.00,0.000000,,2013-06-26 08:00:00,
2013-06-26 01:33:00,62.0,54.0,-100.00,NW,305,1.0,13.0,76,0.00,,,0.00,0.000000,,2013-06-26 08:33:00,
2013-06-26 01:43:00,62.0,54.0,-100.00,NW,305,1.0,13.0,76,0.00,,,0.00,0.000000,,2013-06-26 08:43:00,
2013-06-26 01:53:00,62.0,54.0,-100.00,NW,305,1.0,13.0,76,0.00,,,0.00,0.000000,,2013-06-26 08:53:00,
2013-06-26 02:00:00,60.0,53.0,-100.00,NW,309,1.0,11.0,79,0.00,,,0.00,0.000000,,2013-06-26 09:00:00,
2013-06-26 02:33:00,60.0,53.0,-100.00,NW,309,1.0,11.0,79,0.00,,,0.00,0.000000,,2013-06-26 09:33:00,
2013-06-26 02:43:00,60.0,53.0,-100.00,NW,309,1.0,11.0,79,0.00,,,0.00,0.000000,,2013-06-26 09:43:00,
2013-06-26 02:53:00,60.0,53.0,-100.00,NW,309,1.0,11.0,79,0.00,,,0.00,0.000000,,2013-06-26 09:53:00,
2013-06-26 03:00:00,59.0,53.0,-100.00,North,356,2.0,7.0,80,0.00,,,0.00,0.000000,,2013-06-26 10:00:00,
2013-06-26 03:22:00,59.0,53.0,-100.00,North,356,2.0,7.0,80,0.00,,,0.00,0.000000,,2013-06-26 10:22:00,
2013-06-26 03:34:00,59.0,53.0,-100.00,North,356,2.0,7.0,80,0.00,,,0.00,0.000000,,2013-06-26 10:34:00,
2013-06-26 03:43:00,59.0,53.0,-100.00,North,356,2.0,7.0,80,0.00,,,0.00,0.000000,,2013-06-26 10:43:00,
2013-06-26 03:53:00,59.0,53.0,-100.00,North,356,2.0,7.0,80,0.00,,,0.00,0.000000,,2013-06-26 10:53:00,
2013-06-26 04:00:00,57.0,52.0,-100.00,NW,306,0.0,7.0,82,0.00,,,0.00,0.000000,,2013-06-26 11:00:00,
2013-06-26 04:23:00,57.0,52.0,-100.00,NW,306,0.0,7.0,82,0.00,,,0.00,0.000000,,2013-06-26 11:23:00,
2013-06-26 04:33:00,57.0,52.0,-100.00,NW,306,0.0,7.0,82,0.00,,,0.00,0.000000,,2013-06-26 11:33:00,
2013-06-26 04:44:00,57.0,52.0,-100.00,NW,306,0.0,7.0,82,0.00,,,0.00,0.000000,,2013-06-26 11:44:00,
2013-06-26 04:52:00,57.0,52.0,-100.00,NW,306,0.0,7.0,82,0.00,,,0.00,0.000000,,2013-06-26 11:52:00,
2013-06-26 05:00:00,58.0,50.0,-100.00,WNW,288,3.0,5.0,76,0.00,,,0.00,0.000000,,2013-06-26 12:00:00,
2013-06-26 05:22:00,58.0,50.0,-100.00,WNW,288,3.0,5.0,76,0.00,,,0.00,0.000000,,2013-06-26 12:22:00,
2013-06-26 05:34:00,58.0,50.0,-100.00,WNW,288,3.0,5.0,76,0.00,,,0.00,0.000000,,2013-06-26 12:34:00,
2013-06-26 05:43:00,58.0,50.0,-100.00,WNW,288,3.0,5.0,76,0.00,,,0.00,0.000000,,2013-06-26 12:43:00,
2013-06-26 05:52:00,58.0,50.0,-100.00,WNW,288,3.0,5.0,76,0.00,,,0.00,0.000000,,2013-06-26 12:52:00,
2013-06-26 06:00:00,57.0,50.0,-100.00,NNW,338,2.0,9.0,76,0.00,,,0.00,0.000000,,2013-06-26 13:00:00,
2013-06-26 06:34:00,57.0,50.0,-100.00,NNW,338,2.0,9.0,76,0.00,,,0.00,0.000000,,2013-06-26 13:34:00,
2013-06-26 06:43:00,57.0,50.0,-100.00,NNW,338,2.0,9.0,76,0.00,,,0.00,0.000000,,2013-06-26 13:43:00,
2013-06-26 06:53:00,57.0,50.0,-100.00,NNW,338,2.0,9.0,76,0.00,,,0.00,0.000000,,2013-06-26 13:53:00,
2013-06-26 07:00:00,58.0,46.0,-100.00,North,355,2.0,7.0,64,0.00,,,0.00,2.000000,,2013-06-26 14:00:00,
2013-06-26 07:34:00,58.0,46.0,-100.00,North,355,2.0,7.0,64,0.00,,,0.00,2.000000,,2013-06-26 14:34:00,
2013-06-26 07:42:00,58.0,46.0,-100.00,North,355,2.0,7.0,64,0.00,,,0.00,2.000000,,2013-06-26 14:42:00,
2013-06-26 07:53:00,58.0,46.0,-100.00,North,355,2.0,7.0,64,0.00,,,0.00,2.000000,,2013-06-26 14:53:00,
2013-06-26 08:00:00,65.0,47.0,-100.00,North,7,3.0,8.0,53,0.00,,,0.00,97.000000,,2013-06-26 15:00:00,
2013-06-26 08:34:00,65.0,47.0,-100.00,North,7,3.0,8.0,53,0.00,,,0.00,97.000000,,2013-06-26 15:34:00,
2013-06-26 08:44:00,65.0,47.0,-100.00,North,7,3.0,8.0,53,0.00,,,0.00,97.000000,,2013-06-26 15:44:00,
2013-06-26 08:53:00,65.0,47.0,-100.00,North,7,3.0,8.0,53,0.00,,,0.00,97.000000,,2013-06-26 15:53:00,
2013-06-26 09:00:00,71.0,51.0,-100.00,NNE,15,5.0,8.0,49,0.00,,,0.00,346.000000,,2013-06-26 16:00:00,
2013-06-26 09:22:00,71.0,51.0,-100.00,NNE,15,5.0,8.0,49,0.00,,,0.00,346.000000,,2013-06-26 16:22:00,
2013-06-26 09:34:00,71.0,51.0,-100.00,NNE,15,5.0,8.0,49,0.00,,,0.00,346.000000,,2013-06-26 16:34:00,
2013-06-26 09:43:00,71.0,51.0,-100.00,NNE,15,5.0,8.0,49,0.00,,,0.00,346.000000,,2013-06-26 16:43:00,
2013-06-26 09:52:00,71.0,51.0,-100.00,NNE,15,5.0,8.0,49,0.00,,,0.00,346.000000,,2013-06-26 16:52:00,
2013-06-26 10:00:00,70.0,44.0,-100.00,NNE,12,4.0,9.0,39,0.00,,,0.00,566.000000,,2013-06-26 17:00:00,
2013-06-26 10:33:00,70.0,44.0,-100.00,NNE,12,4.0,9.0,39,0.00,,,0.00,566.000000,,2013-06-26 17:33:00,
2013-06-26 10:43:00,70.0,44.0,-100.00,NNE,12,4.0,9.0,39,0.00,,,0.00,566.000000,,2013-06-26 17:43:00,
2013-06-26 10:52:00,70.0,44.0,-100.00,NNE,12,4.0,9.0,39,0.00,,,0.00,566.000000,,2013-06-26 17:52:00,
2013-06-26 11:00:00,78.0,46.0,-100.00,NNE,15,4.0,10.0,32,0.00,,,0.00,764.000000,,2013-06-26 18:00:00,
2013-06-26 11:34:00,78.0,46.0,-100.00,NNE,15,4.0,10.0,32,0.00,,,0.00,764.000000,,2013-06-26 18:34:00,
2013-06-26 11:43:00,78.0,46.0,-100.00,NNE,15,4.0,10.0,32,0.00,,,0.00,764.000000,,2013-06-26 18:43:00,
2013-06-26 11:52:00,78.0,46.0,-100.00,NNE,15,4.0,10.0,32,0.00,,,0.00,764.000000,,2013-06-26 18:52:00,
2013-06-26 12:00:00,81.0,45.0,-100.00,NNE,27,4.0,10.0,28,0.00,,,0.00,927.000000,,2013-06-26 19:00:00,
2013-06-26 12:33:00,81.0,45.0,-100.00,NNE,27,4.0,10.0,28,0.00,,,0.00,927.000000,,2013-06-26 19:33:00,
2013-06-26 12:43:00,81.0,45.0,-100.00,NNE,27,4.0,10.0,28,0.00,,,0.00,927.000000,,2013-06-26 19:43:00,
2013-06-26 12:52:00,81.0,45.0,-100.00,NNE,27,4.0,10.0,28,0.00,,,0.00,927.000000,,2013-06-26 19:52:00,
2013-06-26 13:00:00,84.0,37.0,-100.00,NW,305,2.0,11.0,19,0.00,,,0.00,1037.000000,,2013-06-26 20:00:00,
2013-06-26 13:34:00,84.0,37.0,-100.00,NW,305,2.0,11.0,19,0.00,,,0.00,1037.000000,,2013-06-26 20:34:00,
2013-06-26 13:43:00,84.0,37.0,-100.00,NW,305,2.0,11.0,19,0.00,,,0.00,1037.000000,,2013-06-26 20:43:00,
2013-06-26 13:52:00,84.0,37.0,-100.00,NW,305,2.0,11.0,19,0.00,,,0.00,1037.000000,,2013-06-26 20:52:00,
2013-06-26 14:00:00,91.0,39.0,-100.00,WNW,295,3.0,10.0,16,0.00,,,0.00,1085.000000,,2013-06-26 21:00:00,
2013-06-26 14:23:00,91.0,39.0,-100.00,WNW,295,3.0,10.0,16,0.00,,,0.00,1085.000000,,2013-06-26 21:23:00,
2013-06-26 14:33:00,91.0,39.0,-100.00,WNW,295,3.0,10.0,16,0.00,,,0.00,1085.000000,,2013-06-26 21:33:00,
2013-06-26 14:43:00,91.0,39.0,-100.00,WNW,295,3.0,10.0,16,0.00,,,0.00,1085.000000,,2013-06-26 21:43:00,
2013-06-26 14:52:00,91.0,39.0,-100.00,WNW,295,3.0,10.0,16,0.00,,,0.00,1085.000000,,2013-06-26 21:52:00,
2013-06-26 16:22:00,95.0,45.0,-100.00,NW,312,3.0,13.0,18,0.00,,,0.00,1033.000000,,2013-06-26 23:22:00,
2013-06-26 16:34:00,95.0,45.0,-100.00,NW,312,3.0,13.0,18,0.00,,,0.00,1033.000000,,2013-06-26 23:34:00,
2013-06-26 16:43:00,95.0,45.0,-100.00,NW,312,3.0,13.0,18,0.00,,,0.00,1033.000000,,2013-06-26 23:43:00,
2013-06-26 16:53:00,95.0,45.0,-100.00,NW,312,3.0,13.0,18,0.00,,,0.00,1033.000000,,2013-06-26 23:53:00,
2013-06-26 17:33:00,90.0,41.0,-100.00,SE,145,3.0,13.0,18,0.00,,,0.00,915.000000,,2013-06-27 00:33:00,
2013-06-26 17:43:00,90.0,41.0,-100.00,SE,145,3.0,13.0,18,0.00,,,0.00,915.000000,,2013-06-27 00:43:00,
2013-06-26 17:53:00,90.0,41.0,-100.00,SE,145,3.0,13.0,18,0.00,,,0.00,915.000000,,2013-06-27 00:53:00,
2013-06-26 18:22:00,92.0,49.0,-100.00,SSE,157,2.0,13.0,23,0.00,,,0.00,747.000000,,2013-06-27 01:22:00,
2013-06-26 18:32:00,92.0,49.0,-100.00,SSE,157,2.0,13.0,23,0.00,,,0.00,747.000000,,2013-06-27 01:32:00,
2013-06-26 18:43:00,92.0,49.0,-100.00,SSE,157,2.0,13.0,23,0.00,,,0.00,747.000000,,2013-06-27 01:43:00,
2013-06-26 19:22:00,86.0,50.0,-100.00,WNW,298,3.0,10.0,29,-99.99,,,0.00,320.000000,,2013-06-27 02:22:00,
2013-06-26 19:32:00,86.0,50.0,-100.00,WNW,298,3.0,10.0,29,-99.99,,,0.00,320.000000,,2013-06-27 02:32:00,
2013-06-26 19:42:00,86.0,50.0,-100.00,WNW,298,3.0,10.0,29,-99.99,,,0.00,320.000000,,2013-06-27 02:42:00,
2013-06-26 19:52:00,86.0,50.0,-100.00,WNW,298,3.0,10.0,29,-99.99,,,0.00,320.000000,,2013-06-27 02:52:00,
2013-06-26 20:00:00,80.0,53.0,-100.00,WNW,288,3.0,10.0,40,0.00,,,0.00,28.000000,,2013-06-27 03:00:00,
2013-06-26 20:22:00,80.0,53.0,-100.00,WNW,288,3.0,10.0,40,0.00,,,0.00,28.000000,,2013-06-27 03:22:00,
2013-06-26 20:33:00,80.0,53.0,-100.00,WNW,288,3.0,10.0,40,0.00,,,0.00,28.000000,,2013-06-27 03:33:00,
2013-06-26 20:42:00,80.0,53.0,-100.00,WNW,288,3.0,10.0,40,0.00,,,0.00,28.000000,,2013-06-27 03:42:00,
2013-06-26 20:52:00,80.0,53.0,-100.00,WNW,288,3.0,10.0,40,0.00,,,0.00,28.000000,,2013-06-27 03:52:00,
2013-06-26 21:00:00,75.0,55.0,-100.00,West,273,3.0,12.0,50,0.00,,,0.00,17.000000,,2013-06-27 04:00:00,
2013-06-26 21:22:00,75.0,55.0,-100.00,West,273,3.0,12.0,50,0.00,,,0.00,17.000000,,2013-06-27 04:22:00,
2013-06-26 21:33:00,75.0,55.0,-100.00,West,273,3.0,12.0,50,0.00,,,0.00,17.000000,,2013-06-27 04:33:00,
2013-06-26 21:42:00,75.0,55.0,-100.00,West,273,3.0,12.0,50,0.00,,,0.00,17.000000,,2013-06-27 04:42:00,
2013-06-26 21:52:00,75.0,55.0,-100.00,West,273,3.0,12.0,50,0.00,,,0.00,17.000000,,2013-06-27 04:52:00,
2013-06-26 22:22:00,71.0,55.0,-100.00,NNE,12,3.0,13.0,58,0.00,,,0.00,1.000000,,2013-06-27 05:22:00,
2013-06-26 22:32:00,71.0,55.0,-100.00,NNE,12,3.0,13.0,58,0.00,,,0.00,1.000000,,2013-06-27 05:32:00,
2013-06-26 22:42:00,71.0,55.0,-100.00,NNE,12,3.0,13.0,58,0.00,,,0.00,1.000000,,2013-06-27 05:42:00,
2013-06-26 22:53:00,71.0,55.0,-100.00,NNE,12,3.0,13.0,58,0.00,,,0.00,1.000000,,2013-06-27 05:53:00,
2013-06-26 23:00:00,67.0,53.0,-100.00,North,358,3.0,11.0,60,0.00,,,0.00,0.000000,,2013-06-27 06:00:00,
2013-06-26 23:23:00,67.0,53.0,-100.00,North,358,3.0,11.0,60,0.00,,,0.00,0.000000,,2013-06-27 06:23:00,
2013-06-26 23:34:00,67.0,53.0,-100.00,North,358,3.0,11.0,60,0.00,,,0.00,0.000000,,2013-06-27 06:34:00,
2013-06-26 23:43:00,67.0,53.0,-100.00,North,358,3.0,11.0,60,0.00,,,0.00,0.000000,,2013-06-27 06:43:00,
2013-06-26 23:53:00,67.0,53.0,-100.00,North,358,3.0,11.0,60,0.00,,,0.00,0.000000,,2013-06-27 06:53:00,